sensor_id;sensor_type;location;lat;lon;timestamp;temperature;humidity
78886;DHT22;68269;52.514;5.722;2023-03-11T00:01:38;3.00;67.00
78886;DHT22;68269;52.514;5.722;2023-03-11T00:04:07;3.00;67.00
78886;DHT22;68269;52.514;5.722;2023-03-11T00:06:37;3.00;67.00
78886;DHT22;68269;52.514;5.722;2023-03-11T00:09:06;2.90;67.00
78886;DHT22;68269;52.514;5.722;2023-03-11T00:11:35;3.00;67.00
78886;DHT22;68269;52.514;5.722;2023-03-11T00:14:04;3.00;66.90
78886;DHT22;68269;52.514;5.722;2023-03-11T00:16:36;3.00;66.90
78886;DHT22;68269;52.514;5.722;2023-03-11T00:19:06;2.90;66.90
78886;DHT22;68269;52.514;5.722;2023-03-11T00:21:35;3.00;66.90
78886;DHT22;68269;52.514;5.722;2023-03-11T00:24:05;2.90;66.90
78886;DHT22;68269;52.514;5.722;2023-03-11T00:26:34;3.00;66.80
78886;DHT22;68269;52.514;5.722;2023-03-11T00:29:04;3.00;66.80
78886;DHT22;68269;52.514;5.722;2023-03-11T00:31:36;2.90;66.80
78886;DHT22;68269;52.514;5.722;2023-03-11T00:34:06;2.90;66.80
78886;DHT22;68269;52.514;5.722;2023-03-11T00:36:35;3.00;66.80
78886;DHT22;68269;52.514;5.722;2023-03-11T00:39:05;3.00;66.80
78886;DHT22;68269;52.514;5.722;2023-03-11T00:41:36;3.00;66.70
78886;DHT22;68269;52.514;5.722;2023-03-11T00:44:05;3.00;66.70
78886;DHT22;68269;52.514;5.722;2023-03-11T00:46:37;3.00;66.70
78886;DHT22;68269;52.514;5.722;2023-03-11T00:49:07;3.10;66.70
78886;DHT22;68269;52.514;5.722;2023-03-11T00:51:36;3.10;66.60
78886;DHT22;68269;52.514;5.722;2023-03-11T00:54:05;3.10;66.60
78886;DHT22;68269;52.514;5.722;2023-03-11T00:56:35;3.10;66.50
78886;DHT22;68269;52.514;5.722;2023-03-11T00:59:04;3.10;66.50
78886;DHT22;68269;52.514;5.722;2023-03-11T01:01:34;3.10;66.50
78886;DHT22;68269;52.514;5.722;2023-03-11T01:04:06;3.10;66.50
78886;DHT22;68269;52.514;5.722;2023-03-11T01:06:35;3.10;66.50
78886;DHT22;68269;52.514;5.722;2023-03-11T01:09:04;3.10;66.50
78886;DHT22;68269;52.514;5.722;2023-03-11T01:11:34;3.10;66.50
78886;DHT22;68269;52.514;5.722;2023-03-11T01:14:03;3.10;66.50
78886;DHT22;68269;52.514;5.722;2023-03-11T01:16:33;3.10;66.50
78886;DHT22;68269;52.514;5.722;2023-03-11T01:19:05;3.10;66.50
78886;DHT22;68269;52.514;5.722;2023-03-11T01:21:35;3.10;66.50
78886;DHT22;68269;52.514;5.722;2023-03-11T01:24:06;3.10;66.50
78886;DHT22;68269;52.514;5.722;2023-03-11T01:26:37;3.10;66.40
78886;DHT22;68269;52.514;5.722;2023-03-11T01:29:07;3.10;66.40
78886;DHT22;68269;52.514;5.722;2023-03-11T01:31:36;3.10;66.40
78886;DHT22;68269;52.514;5.722;2023-03-11T01:34:08;3.10;66.40
78886;DHT22;68269;52.514;5.722;2023-03-11T01:36:37;3.10;66.30
78886;DHT22;68269;52.514;5.722;2023-03-11T01:39:07;3.10;66.30
78886;DHT22;68269;52.514;5.722;2023-03-11T01:41:36;3.10;66.20
78886;DHT22;68269;52.514;5.722;2023-03-11T01:44:06;3.10;66.20
78886;DHT22;68269;52.514;5.722;2023-03-11T01:49:44;3.10;66.20
78886;DHT22;68269;52.514;5.722;2023-03-11T01:52:13;3.10;66.20
78886;DHT22;68269;52.514;5.722;2023-03-11T01:54:48;3.10;66.30
78886;DHT22;68269;52.514;5.722;2023-03-11T01:57:17;3.10;66.20
78886;DHT22;68269;52.514;5.722;2023-03-11T01:59:52;3.10;66.20
78886;DHT22;68269;52.514;5.722;2023-03-11T02:02:25;3.10;66.20
78886;DHT22;68269;52.514;5.722;2023-03-11T02:05:02;3.10;66.20
78886;DHT22;68269;52.514;5.722;2023-03-11T02:07:31;3.10;66.20
78886;DHT22;68269;52.514;5.722;2023-03-11T02:10:01;3.10;66.20
78886;DHT22;68269;52.514;5.722;2023-03-11T02:12:34;3.10;66.10
78886;DHT22;68269;52.514;5.722;2023-03-11T02:15:06;3.10;66.10
78886;DHT22;68269;52.514;5.722;2023-03-11T02:17:37;3.10;66.10
78886;DHT22;68269;52.514;5.722;2023-03-11T02:20:18;3.10;66.10
78886;DHT22;68269;52.514;5.722;2023-03-11T02:22:49;3.10;66.10
78886;DHT22;68269;52.514;5.722;2023-03-11T02:25:29;3.10;66.10
78886;DHT22;68269;52.514;5.722;2023-03-11T02:28:08;3.00;66.10
78886;DHT22;68269;52.514;5.722;2023-03-11T02:30:41;3.00;66.10
78886;DHT22;68269;52.514;5.722;2023-03-11T02:33:12;3.00;66.00
78886;DHT22;68269;52.514;5.722;2023-03-11T02:35:45;3.00;66.00
78886;DHT22;68269;52.514;5.722;2023-03-11T02:38:14;3.10;66.00
78886;DHT22;68269;52.514;5.722;2023-03-11T02:40:48;3.10;66.00
78886;DHT22;68269;52.514;5.722;2023-03-11T02:43:28;3.00;66.00
78886;DHT22;68269;52.514;5.722;2023-03-11T02:46:00;3.00;65.90
78886;DHT22;68269;52.514;5.722;2023-03-11T02:48:31;3.00;65.90
78886;DHT22;68269;52.514;5.722;2023-03-11T02:51:02;3.00;65.80
78886;DHT22;68269;52.514;5.722;2023-03-11T02:53:35;3.00;65.90
78886;DHT22;68269;52.514;5.722;2023-03-11T02:56:06;3.00;65.90
78886;DHT22;68269;52.514;5.722;2023-03-11T02:58:38;3.00;65.90
78886;DHT22;68269;52.514;5.722;2023-03-11T03:01:09;3.00;65.80
78886;DHT22;68269;52.514;5.722;2023-03-11T03:03:40;2.90;65.80
78886;DHT22;68269;52.514;5.722;2023-03-11T03:06:09;2.90;65.90
78886;DHT22;68269;52.514;5.722;2023-03-11T03:08:39;2.90;65.80
78886;DHT22;68269;52.514;5.722;2023-03-11T03:11:08;2.90;65.80
78886;DHT22;68269;52.514;5.722;2023-03-11T03:13:41;2.90;65.80
78886;DHT22;68269;52.514;5.722;2023-03-11T03:16:11;2.80;65.80
78886;DHT22;68269;52.514;5.722;2023-03-11T03:18:40;2.80;65.90
78886;DHT22;68269;52.514;5.722;2023-03-11T03:21:09;2.80;65.90
78886;DHT22;68269;52.514;5.722;2023-03-11T03:23:39;2.70;65.90
78886;DHT22;68269;52.514;5.722;2023-03-11T03:26:11;2.70;65.90
78886;DHT22;68269;52.514;5.722;2023-03-11T03:28:46;2.70;66.00
78886;DHT22;68269;52.514;5.722;2023-03-11T03:31:16;2.60;66.00
78886;DHT22;68269;52.514;5.722;2023-03-11T03:33:45;2.50;66.00
78886;DHT22;68269;52.514;5.722;2023-03-11T03:36:15;2.50;66.00
78886;DHT22;68269;52.514;5.722;2023-03-11T03:38:54;2.50;66.00
78886;DHT22;68269;52.514;5.722;2023-03-11T03:41:29;2.50;66.00
78886;DHT22;68269;52.514;5.722;2023-03-11T03:44:01;2.50;66.00
78886;DHT22;68269;52.514;5.722;2023-03-11T03:46:32;2.50;65.90
78886;DHT22;68269;52.514;5.722;2023-03-11T03:49:04;2.50;65.90
78886;DHT22;68269;52.514;5.722;2023-03-11T03:51:33;2.50;65.90
78886;DHT22;68269;52.514;5.722;2023-03-11T03:54:14;2.50;65.90
78886;DHT22;68269;52.514;5.722;2023-03-11T03:56:44;2.50;65.80
78886;DHT22;68269;52.514;5.722;2023-03-11T03:59:16;2.50;65.80
78886;DHT22;68269;52.514;5.722;2023-03-11T04:01:51;2.50;65.80
78886;DHT22;68269;52.514;5.722;2023-03-11T04:04:21;2.50;65.80
78886;DHT22;68269;52.514;5.722;2023-03-11T04:06:51;2.50;65.80
78886;DHT22;68269;52.514;5.722;2023-03-11T04:09:20;2.40;65.80
78886;DHT22;68269;52.514;5.722;2023-03-11T04:11:50;2.40;65.80
78886;DHT22;68269;52.514;5.722;2023-03-11T04:14:22;2.40;65.80
78886;DHT22;68269;52.514;5.722;2023-03-11T04:16:56;2.40;65.80
78886;DHT22;68269;52.514;5.722;2023-03-11T04:19:26;2.40;65.90
78886;DHT22;68269;52.514;5.722;2023-03-11T04:21:56;2.40;65.90
78886;DHT22;68269;52.514;5.722;2023-03-11T04:24:26;2.40;65.80
78886;DHT22;68269;52.514;5.722;2023-03-11T04:26:56;2.30;65.80
78886;DHT22;68269;52.514;5.722;2023-03-11T04:29:28;2.30;65.80
78886;DHT22;68269;52.514;5.722;2023-03-11T04:31:57;2.30;65.90
78886;DHT22;68269;52.514;5.722;2023-03-11T04:34:27;2.30;65.90
78886;DHT22;68269;52.514;5.722;2023-03-11T04:36:56;2.30;65.90
78886;DHT22;68269;52.514;5.722;2023-03-11T04:39:31;2.30;65.90
78886;DHT22;68269;52.514;5.722;2023-03-11T04:42:00;2.30;65.90
78886;DHT22;68269;52.514;5.722;2023-03-11T04:44:33;2.30;65.80
78886;DHT22;68269;52.514;5.722;2023-03-11T04:47:04;2.20;65.80
78886;DHT22;68269;52.514;5.722;2023-03-11T04:49:35;2.20;65.80
78886;DHT22;68269;52.514;5.722;2023-03-11T04:52:05;2.20;65.80
78886;DHT22;68269;52.514;5.722;2023-03-11T04:54:35;2.20;65.80
78886;DHT22;68269;52.514;5.722;2023-03-11T04:57:05;2.20;65.80
78886;DHT22;68269;52.514;5.722;2023-03-11T04:59:38;2.20;65.80
78886;DHT22;68269;52.514;5.722;2023-03-11T05:02:08;2.20;65.80
78886;DHT22;68269;52.514;5.722;2023-03-11T05:04:41;2.20;65.80
78886;DHT22;68269;52.514;5.722;2023-03-11T05:07:10;2.10;65.80
78886;DHT22;68269;52.514;5.722;2023-03-11T05:09:40;2.10;65.80
78886;DHT22;68269;52.514;5.722;2023-03-11T05:12:10;2.10;65.90
78886;DHT22;68269;52.514;5.722;2023-03-11T05:14:45;2.10;65.90
78886;DHT22;68269;52.514;5.722;2023-03-11T05:17:15;2.00;65.80
78886;DHT22;68269;52.514;5.722;2023-03-11T05:19:46;2.00;65.80
78886;DHT22;68269;52.514;5.722;2023-03-11T05:22:21;2.00;65.80
78886;DHT22;68269;52.514;5.722;2023-03-11T05:24:51;2.00;65.80
78886;DHT22;68269;52.514;5.722;2023-03-11T05:27:21;1.90;65.90
78886;DHT22;68269;52.514;5.722;2023-03-11T05:29:56;1.90;65.90
78886;DHT22;68269;52.514;5.722;2023-03-11T05:32:27;1.90;65.90
78886;DHT22;68269;52.514;5.722;2023-03-11T05:34:57;1.80;65.90
78886;DHT22;68269;52.514;5.722;2023-03-11T05:37:26;1.80;65.90
78886;DHT22;68269;52.514;5.722;2023-03-11T05:39:56;1.80;65.90
78886;DHT22;68269;52.514;5.722;2023-03-11T05:42:26;1.80;65.90
78886;DHT22;68269;52.514;5.722;2023-03-11T05:44:59;1.80;65.90
78886;DHT22;68269;52.514;5.722;2023-03-11T05:47:29;1.80;65.90
78886;DHT22;68269;52.514;5.722;2023-03-11T05:49:58;1.70;65.90
78886;DHT22;68269;52.514;5.722;2023-03-11T05:52:28;1.70;65.90
78886;DHT22;68269;52.514;5.722;2023-03-11T05:54:59;1.70;65.90
78886;DHT22;68269;52.514;5.722;2023-03-11T05:57:30;1.70;65.90
78886;DHT22;68269;52.514;5.722;2023-03-11T06:00:03;1.60;65.90
78886;DHT22;68269;52.514;5.722;2023-03-11T06:02:40;1.60;65.90
78886;DHT22;68269;52.514;5.722;2023-03-11T06:05:13;1.60;65.90
78886;DHT22;68269;52.514;5.722;2023-03-11T06:07:44;1.50;65.90
78886;DHT22;68269;52.514;5.722;2023-03-11T06:10:13;1.50;65.80
78886;DHT22;68269;52.514;5.722;2023-03-11T06:12:43;1.50;65.80
78886;DHT22;68269;52.514;5.722;2023-03-11T06:15:35;1.50;65.80
78886;DHT22;68269;52.514;5.722;2023-03-11T06:18:05;1.50;65.70
78886;DHT22;68269;52.514;5.722;2023-03-11T06:20:35;1.60;65.70
78886;DHT22;68269;52.514;5.722;2023-03-11T06:23:05;1.60;65.70
78886;DHT22;68269;52.514;5.722;2023-03-11T06:25:35;1.60;65.70
78886;DHT22;68269;52.514;5.722;2023-03-11T06:28:04;1.60;65.60
78886;DHT22;68269;52.514;5.722;2023-03-11T06:30:37;1.60;65.70
78886;DHT22;68269;52.514;5.722;2023-03-11T06:33:10;1.60;65.70
78886;DHT22;68269;52.514;5.722;2023-03-11T06:35:40;1.60;65.60
78886;DHT22;68269;52.514;5.722;2023-03-11T06:38:09;1.50;65.70
78886;DHT22;68269;52.514;5.722;2023-03-11T06:40:39;1.50;65.60
78886;DHT22;68269;52.514;5.722;2023-03-11T06:43:10;1.50;65.60
78886;DHT22;68269;52.514;5.722;2023-03-11T06:45:44;1.50;65.60
78886;DHT22;68269;52.514;5.722;2023-03-11T06:48:14;1.50;65.60
78886;DHT22;68269;52.514;5.722;2023-03-11T06:50:43;1.50;65.60
78886;DHT22;68269;52.514;5.722;2023-03-11T06:53:13;1.50;65.50
78886;DHT22;68269;52.514;5.722;2023-03-11T06:55:42;1.50;65.50
78886;DHT22;68269;52.514;5.722;2023-03-11T06:58:11;1.50;65.50
78886;DHT22;68269;52.514;5.722;2023-03-11T07:00:44;1.60;65.50
78886;DHT22;68269;52.514;5.722;2023-03-11T07:03:14;1.60;65.40
78886;DHT22;68269;52.514;5.722;2023-03-11T07:05:44;1.60;65.40
78886;DHT22;68269;52.514;5.722;2023-03-11T07:08:14;1.60;65.40
78886;DHT22;68269;52.514;5.722;2023-03-11T07:10:43;1.70;65.40
78886;DHT22;68269;52.514;5.722;2023-03-11T07:13:13;1.70;65.40
78886;DHT22;68269;52.514;5.722;2023-03-11T07:15:45;1.70;65.40
78886;DHT22;68269;52.514;5.722;2023-03-11T07:18:15;1.70;65.30
78886;DHT22;68269;52.514;5.722;2023-03-11T07:20:44;1.70;65.30
78886;DHT22;68269;52.514;5.722;2023-03-11T07:23:14;1.80;65.30
78886;DHT22;68269;52.514;5.722;2023-03-11T07:25:45;1.80;65.30
78886;DHT22;68269;52.514;5.722;2023-03-11T07:28:14;1.90;65.30
78886;DHT22;68269;52.514;5.722;2023-03-11T07:30:46;2.00;65.20
78886;DHT22;68269;52.514;5.722;2023-03-11T07:33:16;2.10;65.20
78886;DHT22;68269;52.514;5.722;2023-03-11T07:35:45;2.20;65.10
78886;DHT22;68269;52.514;5.722;2023-03-11T07:38:14;2.30;65.00
78886;DHT22;68269;52.514;5.722;2023-03-11T07:40:44;2.40;65.00
78886;DHT22;68269;52.514;5.722;2023-03-11T07:43:14;2.50;64.90
78886;DHT22;68269;52.514;5.722;2023-03-11T07:45:45;2.50;64.80
78886;DHT22;68269;52.514;5.722;2023-03-11T07:48:15;2.60;64.80
78886;DHT22;68269;52.514;5.722;2023-03-11T07:50:44;2.70;64.70
78886;DHT22;68269;52.514;5.722;2023-03-11T07:53:14;2.70;64.70
78886;DHT22;68269;52.514;5.722;2023-03-11T07:55:43;2.80;64.70
78886;DHT22;68269;52.514;5.722;2023-03-11T07:58:12;2.80;64.70
78886;DHT22;68269;52.514;5.722;2023-03-11T08:00:41;2.90;64.70
78886;DHT22;68269;52.514;5.722;2023-03-11T08:03:13;3.00;64.60
78886;DHT22;68269;52.514;5.722;2023-03-11T08:05:43;3.00;64.60
78886;DHT22;68269;52.514;5.722;2023-03-11T08:08:12;3.00;64.60
78886;DHT22;68269;52.514;5.722;2023-03-11T08:10:41;3.10;64.60
78886;DHT22;68269;52.514;5.722;2023-03-11T08:13:11;3.10;64.50
78886;DHT22;68269;52.514;5.722;2023-03-11T08:15:40;3.10;64.50
78886;DHT22;68269;52.514;5.722;2023-03-11T08:18:10;3.30;64.40
78886;DHT22;68269;52.514;5.722;2023-03-11T08:20:41;3.30;64.40
78886;DHT22;68269;52.514;5.722;2023-03-11T08:23:11;3.30;64.40
78886;DHT22;68269;52.514;5.722;2023-03-11T08:25:40;3.30;64.40
78886;DHT22;68269;52.514;5.722;2023-03-11T08:28:10;3.30;64.40
78886;DHT22;68269;52.514;5.722;2023-03-11T08:30:39;3.50;64.40
78886;DHT22;68269;52.514;5.722;2023-03-11T08:33:08;3.50;64.30
78886;DHT22;68269;52.514;5.722;2023-03-11T08:35:37;3.50;64.30
78886;DHT22;68269;52.514;5.722;2023-03-11T08:38:09;3.50;64.30
78886;DHT22;68269;52.514;5.722;2023-03-11T08:40:38;3.60;64.20
78886;DHT22;68269;52.514;5.722;2023-03-11T08:43:11;3.60;64.20
78886;DHT22;68269;52.514;5.722;2023-03-11T08:45:40;3.60;64.10
78886;DHT22;68269;52.514;5.722;2023-03-11T08:48:10;3.70;64.10
78886;DHT22;68269;52.514;5.722;2023-03-11T08:50:40;3.70;64.10
78886;DHT22;68269;52.514;5.722;2023-03-11T08:53:12;3.80;64.00
78886;DHT22;68269;52.514;5.722;2023-03-11T08:55:41;3.90;64.10
78886;DHT22;68269;52.514;5.722;2023-03-11T08:58:10;3.90;64.00
78886;DHT22;68269;52.514;5.722;2023-03-11T09:00:40;3.90;64.00
78886;DHT22;68269;52.514;5.722;2023-03-11T09:03:09;4.00;64.00
78886;DHT22;68269;52.514;5.722;2023-03-11T09:05:38;4.00;64.00
78886;DHT22;68269;52.514;5.722;2023-03-11T09:08:07;4.00;63.90
78886;DHT22;68269;52.514;5.722;2023-03-11T09:10:39;4.10;63.90
78886;DHT22;68269;52.514;5.722;2023-03-11T09:13:09;4.10;63.80
78886;DHT22;68269;52.514;5.722;2023-03-11T09:15:38;4.20;63.80
78886;DHT22;68269;52.514;5.722;2023-03-11T09:18:11;4.20;63.80
78886;DHT22;68269;52.514;5.722;2023-03-11T09:20:41;4.30;63.70
78886;DHT22;68269;52.514;5.722;2023-03-11T09:23:12;4.30;63.70
78886;DHT22;68269;52.514;5.722;2023-03-11T09:25:44;4.40;63.60
78886;DHT22;68269;52.514;5.722;2023-03-11T09:28:14;4.50;63.60
78886;DHT22;68269;52.514;5.722;2023-03-11T09:30:43;4.50;63.60
78886;DHT22;68269;52.514;5.722;2023-03-11T09:33:13;4.50;63.50
78886;DHT22;68269;52.514;5.722;2023-03-11T09:35:42;4.60;63.40
78886;DHT22;68269;52.514;5.722;2023-03-11T09:38:11;4.70;63.40
78886;DHT22;68269;52.514;5.722;2023-03-11T09:40:52;4.70;63.30
78886;DHT22;68269;52.514;5.722;2023-03-11T09:43:34;4.80;63.30
78886;DHT22;68269;52.514;5.722;2023-03-11T09:49:09;5.00;63.20
78886;DHT22;68269;52.514;5.722;2023-03-11T09:51:42;5.00;63.10
78886;DHT22;68269;52.514;5.722;2023-03-11T09:54:14;5.10;63.00
78886;DHT22;68269;52.514;5.722;2023-03-11T09:56:46;5.10;63.00
78886;DHT22;68269;52.514;5.722;2023-03-11T09:59:18;5.30;63.00
78886;DHT22;68269;52.514;5.722;2023-03-11T10:01:51;5.30;62.90
78886;DHT22;68269;52.514;5.722;2023-03-11T10:04:24;5.30;62.90
78886;DHT22;68269;52.514;5.722;2023-03-11T10:06:55;5.50;62.80
78886;DHT22;68269;52.514;5.722;2023-03-11T10:09:32;5.50;62.70
78886;DHT22;68269;52.514;5.722;2023-03-11T10:12:17;5.60;62.50
78886;DHT22;68269;52.514;5.722;2023-03-11T10:15:06;5.60;62.50
78886;DHT22;68269;52.514;5.722;2023-03-11T10:17:48;5.60;62.50
78886;DHT22;68269;52.514;5.722;2023-03-11T10:20:23;5.60;62.60
78886;DHT22;68269;52.514;5.722;2023-03-11T10:22:59;5.50;62.70
78886;DHT22;68269;52.514;5.722;2023-03-11T10:25:40;5.50;62.70
78886;DHT22;68269;52.514;5.722;2023-03-11T10:28:15;5.50;62.60
78886;DHT22;68269;52.514;5.722;2023-03-11T10:30:48;5.60;62.60
78886;DHT22;68269;52.514;5.722;2023-03-11T10:33:23;5.70;62.50
78886;DHT22;68269;52.514;5.722;2023-03-11T10:35:53;5.70;62.40
78886;DHT22;68269;52.514;5.722;2023-03-11T10:38:26;5.80;62.30
78886;DHT22;68269;52.514;5.722;2023-03-11T10:40:56;5.90;62.30
78886;DHT22;68269;52.514;5.722;2023-03-11T10:43:34;6.00;62.20
78886;DHT22;68269;52.514;5.722;2023-03-11T10:46:11;6.00;62.20
78886;DHT22;68269;52.514;5.722;2023-03-11T10:48:43;6.00;62.20
78886;DHT22;68269;52.514;5.722;2023-03-11T10:51:15;6.00;62.20
78886;DHT22;68269;52.514;5.722;2023-03-11T10:53:50;6.10;62.10
78886;DHT22;68269;52.514;5.722;2023-03-11T10:56:29;6.10;62.10
78886;DHT22;68269;52.514;5.722;2023-03-11T10:59:02;6.30;61.90
78886;DHT22;68269;52.514;5.722;2023-03-11T11:01:32;6.40;61.80
78886;DHT22;68269;52.514;5.722;2023-03-11T11:04:01;6.40;61.70
78886;DHT22;68269;52.514;5.722;2023-03-11T11:06:32;6.40;61.60
78886;DHT22;68269;52.514;5.722;2023-03-11T11:09:16;6.50;61.60
78886;DHT22;68269;52.514;5.722;2023-03-11T11:12:01;6.60;61.40
78886;DHT22;68269;52.514;5.722;2023-03-11T11:14:45;6.70;61.40
78886;DHT22;68269;52.514;5.722;2023-03-11T11:17:17;6.70;61.40
78886;DHT22;68269;52.514;5.722;2023-03-11T11:19:48;6.80;61.30
78886;DHT22;68269;52.514;5.722;2023-03-11T11:22:19;6.80;61.30
78886;DHT22;68269;52.514;5.722;2023-03-11T11:24:51;6.90;61.20
78886;DHT22;68269;52.514;5.722;2023-03-11T11:27:23;7.00;61.10
78886;DHT22;68269;52.514;5.722;2023-03-11T11:30:14;7.00;61.00
78886;DHT22;68269;52.514;5.722;2023-03-11T11:32:44;7.10;60.70
78886;DHT22;68269;52.514;5.722;2023-03-11T11:35:15;7.20;60.70
78886;DHT22;68269;52.514;5.722;2023-03-11T11:37:46;7.10;60.60
78886;DHT22;68269;52.514;5.722;2023-03-11T11:40:23;7.20;60.50
78886;DHT22;68269;52.514;5.722;2023-03-11T11:42:55;7.20;60.30
78886;DHT22;68269;52.514;5.722;2023-03-11T11:45:34;7.50;60.20
78886;DHT22;68269;52.514;5.722;2023-03-11T11:48:13;7.60;60.00
78886;DHT22;68269;52.514;5.722;2023-03-11T11:50:45;7.80;59.80
78886;DHT22;68269;52.514;5.722;2023-03-11T11:53:24;7.90;59.70
78886;DHT22;68269;52.514;5.722;2023-03-11T11:55:56;7.90;59.60
78886;DHT22;68269;52.514;5.722;2023-03-11T11:58:25;8.00;59.50
78886;DHT22;68269;52.514;5.722;2023-03-11T12:01:06;8.00;59.50
78886;DHT22;68269;52.514;5.722;2023-03-11T12:06:36;8.20;59.20
78886;DHT22;68269;52.514;5.722;2023-03-11T12:09:16;8.30;59.30
78886;DHT22;68269;52.514;5.722;2023-03-11T12:11:57;8.40;59.20
78886;DHT22;68269;52.514;5.722;2023-03-11T12:14:36;8.50;59.00
78886;DHT22;68269;52.514;5.722;2023-03-11T12:17:12;8.60;59.00
78886;DHT22;68269;52.514;5.722;2023-03-11T12:19:46;8.50;59.00
78886;DHT22;68269;52.514;5.722;2023-03-11T12:22:38;8.60;59.00
78886;DHT22;68269;52.514;5.722;2023-03-11T12:25:19;8.80;58.80
78886;DHT22;68269;52.514;5.722;2023-03-11T12:27:55;9.00;58.70
78886;DHT22;68269;52.514;5.722;2023-03-11T12:30:28;9.10;58.60
78886;DHT22;68269;52.514;5.722;2023-03-11T12:33:05;9.10;58.50
78886;DHT22;68269;52.514;5.722;2023-03-11T12:35:37;9.00;58.50
78886;DHT22;68269;52.514;5.722;2023-03-11T12:38:15;8.90;58.70
78886;DHT22;68269;52.514;5.722;2023-03-11T12:47:02;8.70;59.00
78886;DHT22;68269;52.514;5.722;2023-03-11T12:49:35;8.90;58.80
78886;DHT22;68269;52.514;5.722;2023-03-11T12:52:23;9.00;58.70
78886;DHT22;68269;52.514;5.722;2023-03-11T12:58:25;9.00;58.00
78886;DHT22;68269;52.514;5.722;2023-03-11T13:01:14;9.00;58.00
78886;DHT22;68269;52.514;5.722;2023-03-11T13:03:55;9.00;57.90
78886;DHT22;68269;52.514;5.722;2023-03-11T13:10:10;9.50;57.30
78886;DHT22;68269;52.514;5.722;2023-03-11T13:12:42;9.60;57.20
78886;DHT22;68269;52.514;5.722;2023-03-11T13:15:32;9.60;57.20
78886;DHT22;68269;52.514;5.722;2023-03-11T13:18:13;9.60;57.10
78886;DHT22;68269;52.514;5.722;2023-03-11T13:20:46;9.70;57.20
78886;DHT22;68269;52.514;5.722;2023-03-11T13:23:34;9.80;57.10
78886;DHT22;68269;52.514;5.722;2023-03-11T13:29:34;9.90;56.90
78886;DHT22;68269;52.514;5.722;2023-03-11T13:32:24;10.00;56.60
78886;DHT22;68269;52.514;5.722;2023-03-11T13:35:04;10.00;56.50
78886;DHT22;68269;52.514;5.722;2023-03-11T13:37:43;9.70;56.60
78886;DHT22;68269;52.514;5.722;2023-03-11T13:40:29;9.50;56.80
78886;DHT22;68269;52.514;5.722;2023-03-11T13:43:03;9.30;56.70
78886;DHT22;68269;52.514;5.722;2023-03-11T13:45:34;9.00;57.00
78886;DHT22;68269;52.514;5.722;2023-03-11T13:48:09;9.00;57.10
78886;DHT22;68269;52.514;5.722;2023-03-11T13:50:44;9.20;56.80
78886;DHT22;68269;52.514;5.722;2023-03-11T13:53:19;9.40;56.50
78886;DHT22;68269;52.514;5.722;2023-03-11T13:55:53;9.50;56.20
78886;DHT22;68269;52.514;5.722;2023-03-11T13:58:24;9.60;56.10
78886;DHT22;68269;52.514;5.722;2023-03-11T14:00:54;9.80;55.80
78886;DHT22;68269;52.514;5.722;2023-03-11T14:03:26;9.80;55.70
78886;DHT22;68269;52.514;5.722;2023-03-11T14:05:59;10.00;55.50
78886;DHT22;68269;52.514;5.722;2023-03-11T14:08:30;10.00;55.40
78886;DHT22;68269;52.514;5.722;2023-03-11T14:11:14;10.10;55.30
78886;DHT22;68269;52.514;5.722;2023-03-11T14:13:46;10.20;55.20
78886;DHT22;68269;52.514;5.722;2023-03-11T14:16:17;10.00;55.50
78886;DHT22;68269;52.514;5.722;2023-03-11T14:19:00;10.00;55.50
78886;DHT22;68269;52.514;5.722;2023-03-11T14:21:30;9.80;55.60
78886;DHT22;68269;52.514;5.722;2023-03-11T14:24:01;9.60;56.00
78886;DHT22;68269;52.514;5.722;2023-03-11T14:26:34;9.80;55.90
78886;DHT22;68269;52.514;5.722;2023-03-11T14:29:08;9.80;55.70
78886;DHT22;68269;52.514;5.722;2023-03-11T14:31:41;9.70;55.80
78886;DHT22;68269;52.514;5.722;2023-03-11T14:34:14;9.50;56.00
78886;DHT22;68269;52.514;5.722;2023-03-11T14:36:45;9.20;56.30
78886;DHT22;68269;52.514;5.722;2023-03-11T14:39:23;9.00;56.50
78886;DHT22;68269;52.514;5.722;2023-03-11T14:41:58;8.70;56.60
78886;DHT22;68269;52.514;5.722;2023-03-11T14:44:32;8.60;56.80
78886;DHT22;68269;52.514;5.722;2023-03-11T14:47:08;8.40;57.00
78886;DHT22;68269;52.514;5.722;2023-03-11T14:49:39;8.40;57.00
78886;DHT22;68269;52.514;5.722;2023-03-11T14:52:13;8.30;57.10
78886;DHT22;68269;52.514;5.722;2023-03-11T14:54:45;8.30;57.10
78886;DHT22;68269;52.514;5.722;2023-03-11T14:57:22;8.20;57.10
78886;DHT22;68269;52.514;5.722;2023-03-11T14:59:52;8.30;57.00
78886;DHT22;68269;52.514;5.722;2023-03-11T15:02:38;8.40;56.90
78886;DHT22;68269;52.514;5.722;2023-03-11T15:05:15;8.50;56.60
78886;DHT22;68269;52.514;5.722;2023-03-11T15:07:48;8.50;56.60
78886;DHT22;68269;52.514;5.722;2023-03-11T15:10:19;8.50;56.60
78886;DHT22;68269;52.514;5.722;2023-03-11T15:13:03;8.50;56.50
78886;DHT22;68269;52.514;5.722;2023-03-11T15:15:33;8.60;56.20
78886;DHT22;68269;52.514;5.722;2023-03-11T15:18:14;8.60;56.20
78886;DHT22;68269;52.514;5.722;2023-03-11T15:21:03;9.00;56.00
78886;DHT22;68269;52.514;5.722;2023-03-11T15:23:34;9.20;55.60
78886;DHT22;68269;52.514;5.722;2023-03-11T15:26:04;9.40;55.50
78886;DHT22;68269;52.514;5.722;2023-03-11T15:28:37;9.40;55.40
78886;DHT22;68269;52.514;5.722;2023-03-11T15:31:23;9.60;55.20
78886;DHT22;68269;52.514;5.722;2023-03-11T15:34:11;10.00;54.80
78886;DHT22;68269;52.514;5.722;2023-03-11T15:39:44;10.40;54.60
78886;DHT22;68269;52.514;5.722;2023-03-11T15:42:21;10.50;54.60
78886;DHT22;68269;52.514;5.722;2023-03-11T15:45:09;10.60;54.50
78886;DHT22;68269;52.514;5.722;2023-03-11T15:47:40;10.40;54.50
78886;DHT22;68269;52.514;5.722;2023-03-11T15:50:15;10.30;54.70
78886;DHT22;68269;52.514;5.722;2023-03-11T15:52:45;10.30;54.70
78886;DHT22;68269;52.514;5.722;2023-03-11T15:55:15;10.30;54.70
78886;DHT22;68269;52.514;5.722;2023-03-11T15:57:45;10.40;54.70
78886;DHT22;68269;52.514;5.722;2023-03-11T16:00:20;10.30;54.70
78886;DHT22;68269;52.514;5.722;2023-03-11T16:02:50;10.20;54.70
78886;DHT22;68269;52.514;5.722;2023-03-11T16:05:21;10.10;54.80
78886;DHT22;68269;52.514;5.722;2023-03-11T16:07:51;10.20;54.80
78886;DHT22;68269;52.514;5.722;2023-03-11T16:10:22;10.30;54.70
78886;DHT22;68269;52.514;5.722;2023-03-11T16:12:54;10.30;54.60
78886;DHT22;68269;52.514;5.722;2023-03-11T16:15:28;10.70;54.40
78886;DHT22;68269;52.514;5.722;2023-03-11T16:17:58;11.80;53.10
78886;DHT22;68269;52.514;5.722;2023-03-11T16:20:32;13.10;51.50
78886;DHT22;68269;52.514;5.722;2023-03-11T16:23:02;14.00;50.40
78886;DHT22;68269;52.514;5.722;2023-03-11T16:25:35;14.70;49.50
78886;DHT22;68269;52.514;5.722;2023-03-11T16:28:05;16.00;48.30
78886;DHT22;68269;52.514;5.722;2023-03-11T16:30:37;16.90;47.80
78886;DHT22;68269;52.514;5.722;2023-03-11T16:33:06;17.80;47.20
78886;DHT22;68269;52.514;5.722;2023-03-11T16:35:35;18.70;46.70
78886;DHT22;68269;52.514;5.722;2023-03-11T16:38:06;19.50;46.40
78886;DHT22;68269;52.514;5.722;2023-03-11T16:40:35;20.20;46.20
78886;DHT22;68269;52.514;5.722;2023-03-11T16:43:06;20.80;46.10
78886;DHT22;68269;52.514;5.722;2023-03-11T16:45:38;21.50;45.90
78886;DHT22;68269;52.514;5.722;2023-03-11T16:48:08;21.00;46.30